Weather at Geneva Cointrin International Airport

Public forecast

Using degrees Celsius for public forecast. Weather courtesy of forecast.io.

Current aviation weather report (METAR) for Geneva Cointrin International Airport

Report is more than 6 hours old.

2022/11/14 15:20 (retrieved 2 years ago)

LSGG 141520Z 18007KT 9999 FEW050 BKN065 15/05 Q1016 NOSIG

Aviation forecast (TAF) for Geneva Cointrin International Airport

Forecast is more than 12 hours old.

2023/02/22 18:33 (retrieved 1 year ago)

TAF TAF LSGG 221725Z 2218/2324 VRB02KT 9999 FEW020 SCT040 BKN060 TX12/2315Z TN04/2306Z BECMG 2311/2313 04007KT